Time;durP1;ratioP1;P1;durP2;ratioP2;P2;SDS_P1;SDS_P2;PMS_P1;PMS_P2;Temp;Humidity;BMP_temperature;BMP_pressure;BME280_temperature;BME280_humidity;BME280_pressure;Samples;Min_cycle;Max_cycle;Signal;HPM_P1;HPM_P2
2022/05/06 00:00:34;;;;;;;11.57;6.05;;;;;;;11.66;60.30;101363.97;5031151;28;20033;-75
2022/05/06 00:03:15;;;;;;;18.02;6.43;;;;;;;11.37;60.60;101357.53;5033340;28;20036;-75
2022/05/06 00:05:40;;;;;;;12.35;5.93;;;;;;;11.40;60.94;101354.94;5063178;28;21535;-75
2022/05/06 00:08:11;;;;;;;25.90;5.28;;;;;;;11.27;61.20;101368.78;5042524;28;20040;-78
2022/05/06 00:10:38;;;;;;;11.13;5.30;;;;;;;11.35;61.30;101355.75;5069308;28;20024;-75
2022/05/06 00:13:04;;;;;;;11.23;5.95;;;;;;;11.43;61.74;101404.03;5066988;28;20123;-75
2022/05/06 00:15:31;;;;;;;9.75;5.80;;;;;;;11.34;61.83;101380.25;5049059;28;20463;-75
2022/05/06 00:17:56;;;;;;;9.02;5.78;;;;;;;10.97;62.21;101357.00;5062415;28;20079;-75
2022/05/06 00:20:23;;;;;;;8.30;6.07;;;;;;;11.00;62.20;101364.03;5068212;28;20044;-76
2022/05/06 00:22:57;;;;;;;15.50;7.05;;;;;;;10.83;62.81;101357.69;5060393;28;20049;-76
2022/05/06 00:25:27;;;;;;;10.30;5.50;;;;;;;10.88;63.30;101366.50;5043046;28;20091;-73
2022/05/06 00:27:55;;;;;;;10.55;6.38;;;;;;;11.10;62.07;101367.72;5064070;28;20045;-77
2022/05/06 00:30:23;;;;;;;21.10;6.68;;;;;;;10.83;62.94;101360.31;5036561;28;20040;-75
2022/05/06 00:32:55;;;;;;;9.55;5.65;;;;;;;10.88;62.65;101396.28;5071158;28;20452;-74
2022/05/06 00:35:43;;;;;;;13.82;7.28;;;;;;;10.86;61.93;101379.59;5031349;28;20039;-75
2022/05/06 00:38:10;;;;;;;10.93;5.38;;;;;;;10.65;62.18;101372.31;5034046;28;20064;-75
2022/05/06 00:40:38;;;;;;;9.00;5.28;;;;;;;10.41;62.67;101364.94;5063673;28;20028;-74
2022/05/06 00:43:27;;;;;;;10.05;5.78;;;;;;;10.42;63.01;101368.44;5049335;28;20071;-74
2022/05/06 00:45:57;;;;;;;10.45;6.28;;;;;;;10.52;62.28;101357.25;5064807;28;20139;-74
2022/05/06 00:48:55;;;;;;;19.75;7.45;;;;;;;10.38;62.59;101364.03;5059239;28;20040;-75
2022/05/06 00:51:21;;;;;;;12.77;6.60;;;;;;;10.33;62.72;101375.31;5044641;28;20041;-77
2022/05/06 00:53:48;;;;;;;10.38;6.45;;;;;;;10.64;62.88;101409.91;5035866;28;20054;-74
2022/05/06 00:56:32;;;;;;;9.63;7.47;;;;;;;10.31;62.72;101371.78;5069773;28;20031;-74
2022/05/06 00:58:57;;;;;;;8.85;5.75;;;;;;;10.35;63.17;101365.72;5067570;28;20046;-75
2022/05/06 01:01:26;;;;;;;10.93;6.45;;;;;;;10.55;62.26;101362.53;5070191;28;20488;-74
2022/05/06 01:03:54;;;;;;;8.60;5.47;;;;;;;10.35;63.04;101377.97;5054445;28;20124;-75
2022/05/06 01:06:21;;;;;;;10.63;6.20;;;;;;;10.27;63.26;101358.56;5033876;28;20028;-75
2022/05/06 01:08:49;;;;;;;11.05;5.80;;;;;;;10.17;63.47;101361.88;5018631;28;20071;-74
2022/05/06 01:11:18;;;;;;;15.90;7.07;;;;;;;10.34;62.92;101363.94;5025581;28;20078;-74
2022/05/06 01:13:47;;;;;;;9.55;6.03;;;;;;;9.98;62.82;101335.34;5025303;28;20418;-75
2022/05/06 01:16:15;;;;;;;23.00;5.70;;;;;;;10.01;63.02;101353.75;5012194;28;20048;-75
2022/05/06 01:18:54;;;;;;;15.35;5.88;;;;;;;9.99;62.32;101357.19;5052159;28;20044;-76
2022/05/06 01:21:26;;;;;;;7.40;5.78;;;;;;;10.24;61.54;101361.13;5050345;28;20037;-77
2022/05/06 01:23:52;;;;;;;10.80;5.60;;;;;;;10.37;61.56;101402.47;5028395;28;20040;-79
2022/05/06 01:26:19;;;;;;;9.50;5.80;;;;;;;10.21;60.95;101368.94;5049108;28;20036;-74
2022/05/06 01:28:55;;;;;;;11.85;6.00;;;;;;;10.06;61.75;101364.31;5051558;28;20025;-74
2022/05/06 01:31:24;;;;;;;11.60;6.93;;;;;;;9.92;61.60;101370.19;5054588;28;20048;-75
2022/05/06 01:33:55;;;;;;;8.98;5.00;;;;;;;10.00;61.47;101354.63;5022399;28;20053;-75
2022/05/06 01:36:25;;;;;;;12.82;6.25;;;;;;;10.04;61.41;101352.91;5050829;28;21835;-76
2022/05/06 01:38:57;;;;;;;9.45;5.85;;;;;;;9.96;61.26;101349.28;5047515;28;20045;-75
2022/05/06 01:41:26;;;;;;;9.82;5.55;;;;;;;9.99;61.73;101351.94;5033305;28;20041;-75
2022/05/06 01:44:04;;;;;;;8.25;6.13;;;;;;;9.95;61.45;101353.66;5039330;28;20549;-76
2022/05/06 01:46:35;;;;;;;10.63;5.38;;;;;;;9.86;62.29;101359.59;5011189;28;20051;-76
2022/05/06 01:49:02;;;;;;;9.85;5.40;;;;;;;10.03;62.03;101362.53;5030349;28;20057;-76
2022/05/06 01:51:30;;;;;;;14.32;5.88;;;;;;;9.82;61.86;101351.66;5032972;28;20045;-76
2022/05/06 01:53:57;;;;;;;11.65;6.18;;;;;;;9.94;61.73;101349.25;5036531;28;20506;-74
2022/05/06 01:56:23;;;;;;;10.57;5.25;;;;;;;9.99;61.36;101352.84;5020456;28;20188;-75
2022/05/06 01:58:53;;;;;;;15.45;6.35;;;;;;;10.21;61.90;101401.31;5046545;28;20495;-76
2022/05/06 02:01:20;;;;;;;8.95;5.65;;;;;;;9.87;61.58;101345.63;5027310;28;20112;-74
2022/05/06 02:06:30;;;;;;;11.05;5.28;;;;;;;9.90;60.77;101363.16;5061891;28;20110;-76
2022/05/06 02:08:56;;;;;;;9.45;4.68;;;;;;;9.94;61.04;101365.84;5040186;28;20110;-75
2022/05/06 02:11:24;;;;;;;10.88;5.43;;;;;;;10.06;60.89;101390.53;5065286;28;20121;-75
2022/05/06 02:13:59;;;;;;;8.52;4.65;;;;;;;9.75;61.28;101355.91;5060392;28;21195;-73
2022/05/06 02:16:25;;;;;;;9.52;5.82;;;;;;;9.77;61.28;101348.94;5061743;28;20048;-74
2022/05/06 02:18:51;;;;;;;12.07;4.70;;;;;;;9.98;60.52;101364.19;5049072;28;20040;-77
2022/05/06 02:21:17;;;;;;;18.55;6.53;;;;;;;9.99;60.02;101365.06;5067217;28;20078;-75
2022/05/06 02:23:48;;;;;;;10.82;4.93;;;;;;;9.98;60.90;101395.66;5064522;28;20049;-74
2022/05/06 02:26:14;;;;;;;9.05;4.90;;;;;;;9.75;60.93;101365.50;5048546;28;20028;-75
2022/05/06 02:28:41;;;;;;;21.23;4.90;;;;;;;9.82;60.44;101368.25;5049722;28;20414;-75
2022/05/06 02:33:51;;;;;;;9.90;5.85;;;;;;;9.93;60.73;101408.69;5071116;28;20060;-77
2022/05/06 02:36:19;;;;;;;9.35;4.78;;;;;;;9.72;60.74;101382.94;5065044;28;20056;-75
2022/05/06 02:38:46;;;;;;;8.38;4.72;;;;;;;9.73;60.92;101386.44;5036874;28;20044;-74
2022/05/06 02:41:21;;;;;;;11.98;5.47;;;;;;;9.51;61.04;101358.94;5043767;28;20025;-74
2022/05/06 02:43:58;;;;;;;18.60;6.00;;;;;;;9.87;60.99;101412.91;5051882;28;20048;-75
2022/05/06 02:46:27;;;;;;;8.15;4.97;;;;;;;9.57;61.34;101358.16;5050816;28;20048;-74
2022/05/06 02:48:52;;;;;;;7.75;4.85;;;;;;;9.83;61.10;101408.47;5060429;28;20032;-76
2022/05/06 02:51:28;;;;;;;12.55;5.25;;;;;;;9.63;61.53;101359.19;5039504;28;20520;-75
2022/05/06 02:53:58;;;;;;;8.45;5.13;;;;;;;9.68;61.30;101375.00;5048594;28;21671;-75
2022/05/06 02:56:24;;;;;;;8.82;5.43;;;;;;;9.76;61.16;101383.88;5040310;28;20051;-75
2022/05/06 02:58:52;;;;;;;9.52;4.60;;;;;;;9.80;61.23;101419.78;5039870;28;20039;-74
2022/05/06 03:01:18;;;;;;;10.20;5.45;;;;;;;9.55;61.06;101379.09;5066021;28;20072;-74
2022/05/06 03:04:00;;;;;;;27.88;6.00;;;;;;;9.67;60.14;101371.50;5056080;28;20064;-75
2022/05/06 03:06:29;;;;;;;8.80;5.07;;;;;;;9.60;60.44;101374.84;5040633;28;20128;-76
2022/05/06 03:08:55;;;;;;;8.43;4.75;;;;;;;9.89;60.02;101416.44;5016878;28;20116;-74
2022/05/06 03:11:21;;;;;;;10.20;5.05;;;;;;;9.80;59.91;101432.88;5034606;28;20366;-74
2022/05/06 03:13:47;;;;;;;11.38;5.28;;;;;;;9.77;59.81;101414.47;5047119;28;20036;-74
2022/05/06 03:16:25;;;;;;;10.88;4.75;;;;;;;9.39;59.63;101382.25;5033830;28;20042;-73
2022/05/06 03:18:50;;;;;;;8.75;3.90;;;;;;;9.79;59.67;101427.63;5035225;28;20044;-77
2022/05/06 03:21:18;;;;;;;7.32;3.88;;;;;;;9.57;58.78;101382.63;5008441;28;20065;-75
2022/05/06 03:27:59;;;;;;;8.98;4.70;;;;;;;9.43;59.16;101389.34;5051637;28;20519;-74
2022/05/06 03:33:16;;;;;;;11.85;4.97;;;;;;;9.52;59.68;101382.53;5062305;28;20387;-74
2022/05/06 03:35:44;;;;;;;20.73;5.93;;;;;;;9.66;59.20;101379.31;5060322;28;20070;-74
2022/05/06 03:38:10;;;;;;;9.68;5.35;;;;;;;9.88;59.44;101422.53;5060899;28;20029;-75
2022/05/06 03:43:58;;;;;;;9.77;5.28;;;;;;;9.73;59.45;101433.63;5056229;28;20518;-74
2022/05/06 03:51:20;;;;;;;10.52;4.38;;;;;;;9.67;59.22;101429.16;5083956;28;20039;-75
2022/05/06 03:52:31;;;;;;;13.68;5.22;;;;;;;9.81;58.98;101431.13;5082904;28;20472;-74
2022/05/06 04:01:41;;;;;;;7.80;4.30;;;;;;;9.59;57.81;101435.06;5042928;28;20095;-74
2022/05/06 04:12:28;;;;;;;14.95;5.35;;;;;;;9.78;57.19;101426.72;5081935;28;20043;-75
2022/05/06 04:15:04;;;;;;;14.30;5.82;;;;;;;9.69;56.40;101419.59;5079763;28;20036;-75
2022/05/06 04:27:01;;;;;;;17.83;5.63;;;;;;;10.19;55.37;101434.50;5095756;28;20075;-75
2022/05/06 04:32:49;;;;;;;15.80;4.85;;;;;;;10.25;55.09;101475.69;5064568;28;20067;-76
2022/05/06 04:38:39;;;;;;;17.48;5.25;;;;;;;10.14;55.47;101438.78;5079731;28;20050;-74
2022/05/06 04:44:33;;;;;;;10.32;4.78;;;;;;;10.18;55.35;101444.94;5081119;28;20502;-75
2022/05/06 04:47:01;;;;;;;11.48;4.57;;;;;;;10.41;55.09;101466.38;5080717;28;20012;-75
2022/05/06 04:49:28;;;;;;;10.10;4.65;;;;;;;10.55;55.35;101475.38;5086966;28;20020;-74
2022/05/06 04:51:55;;;;;;;15.02;5.32;;;;;;;10.72;55.20;101468.69;5076260;28;20028;-74
2022/05/06 04:54:20;;;;;;;11.27;5.47;;;;;;;10.62;55.75;101453.63;5077011;28;20032;-75
2022/05/06 04:56:52;;;;;;;10.15;4.60;;;;;;;10.64;55.94;101445.78;5071334;28;20044;-75
2022/05/06 04:59:18;;;;;;;16.85;5.93;;;;;;;10.93;55.50;101478.66;5058069;28;20068;-77
2022/05/06 05:01:45;;;;;;;21.08;6.15;;;;;;;11.07;54.11;101455.19;5079415;28;20035;-75
2022/05/06 05:04:11;;;;;;;12.90;5.18;;;;;;;11.39;53.37;101447.78;5082199;28;20584;-75
2022/05/06 05:06:39;;;;;;;13.45;6.07;;;;;;;11.74;53.75;101494.66;5092358;28;20047;-75
2022/05/06 05:12:32;;;;;;;16.27;5.97;;;;;;;12.09;52.13;101467.94;5097291;28;20099;-74
2022/05/06 05:18:22;;;;;;;9.38;5.95;;;;;;;12.45;51.24;101449.00;5079422;28;20062;-74
2022/05/06 05:20:49;;;;;;;24.33;15.38;;;;;;;12.73;49.87;101512.41;5075731;28;20115;-75
2022/05/06 05:26:38;;;;;;;12.30;5.80;;;;;;;12.68;49.97;101458.84;5077933;28;20130;-75
2022/05/06 05:32:27;;;;;;;10.95;7.03;;;;;;;13.34;48.72;101508.53;5098826;28;20043;-74
2022/05/06 05:38:15;;;;;;;14.20;6.57;;;;;;;14.09;48.58;101501.84;5094159;28;20122;-74
2022/05/06 05:40:56;;;;;;;15.60;6.20;;;;;;;13.87;47.85;101453.41;5099022;28;20027;-75
2022/05/06 05:52:49;;;;;;;23.40;6.30;;;;;;;13.94;48.26;101510.59;5098036;28;20058;-76
2022/05/06 05:58:37;;;;;;;13.45;5.35;;;;;;;13.96;49.20;101460.47;5095581;28;20043;-78
2022/05/06 06:01:30;;;;;;;12.52;5.38;;;;;;;14.63;48.34;101506.38;5083646;28;20040;-77
2022/05/06 06:03:56;;;;;;;;;;;;;;;14.59;48.95;101472.94;5071690;28;20038;-78
2022/05/06 06:06:22;;;;;;;18.00;6.07;;;;;;;15.15;47.18;101478.19;5091876;28;19923;-77
2022/05/06 06:08:48;;;;;;;18.33;6.05;;;;;;;15.17;47.44;101468.50;5088649;28;20028;-77
2022/05/06 06:11:23;;;;;;;12.32;5.00;;;;;;;15.27;46.97;101465.81;5087093;28;20065;-77
2022/05/06 06:13:52;;;;;;;22.55;5.50;;;;;;;15.60;46.54;101484.22;5072358;28;20050;-77
2022/05/06 06:16:22;;;;;;;10.68;5.50;;;;;;;15.72;46.11;101527.44;5056780;28;20056;-77
2022/05/06 06:18:48;;;;;;;8.68;4.88;;;;;;;15.66;45.69;101490.38;5086316;28;20048;-76
2022/05/06 06:21:16;;;;;;;10.52;4.55;;;;;;;15.97;47.48;101515.88;5087902;28;20051;-76
2022/05/06 06:23:43;;;;;;;17.40;4.18;;;;;;;15.85;44.61;101505.34;5083000;28;20051;-76
2022/05/06 06:26:09;;;;;;;9.50;3.95;;;;;;;15.93;44.23;101522.06;5076769;28;20039;-77
2022/05/06 06:28:53;;;;;;;10.73;5.15;;;;;;;15.99;45.80;101503.53;5062777;28;20028;-77
2022/05/06 06:31:18;;;;;;;13.75;5.15;;;;;;;15.01;46.23;101477.31;5077246;28;20036;-76
2022/05/06 06:33:44;;;;;;;27.55;4.57;;;;;;;15.81;45.26;101503.59;5082685;28;20385;-76
2022/05/06 06:36:11;;;;;;;9.25;4.30;;;;;;;16.02;45.65;101471.72;5078284;28;20134;-76
2022/05/06 06:38:37;;;;;;;10.30;4.60;;;;;;;16.19;45.44;101510.47;5058607;28;20043;-77
2022/05/06 06:41:04;;;;;;;7.95;3.97;;;;;;;15.98;43.89;101506.16;5083485;28;20020;-77
2022/05/06 06:43:29;;;;;;;13.80;3.50;;;;;;;16.13;44.06;101461.09;5080646;28;20081;-78
2022/05/06 06:45:56;;;;;;;15.20;5.25;;;;;;;16.51;45.91;101496.16;5069386;28;20036;-77
2022/05/06 06:48:26;;;;;;;14.75;3.63;;;;;;;16.68;44.90;101496.91;5076894;28;20040;-77
2022/05/06 06:50:53;;;;;;;11.60;3.85;;;;;;;16.51;43.22;101464.34;5085098;28;20044;-78
2022/05/06 06:53:25;;;;;;;5.50;3.58;;;;;;;16.68;44.34;101488.94;5049756;28;20048;-77
2022/05/06 06:55:52;;;;;;;10.10;5.53;;;;;;;16.41;43.56;101469.72;5074167;28;20040;-80
2022/05/06 06:58:18;;;;;;;8.05;4.35;;;;;;;16.59;45.13;101459.88;5080912;28;20073;-78
2022/05/06 07:00:44;;;;;;;14.95;5.50;;;;;;;16.53;43.81;101450.22;5058418;28;21213;-77
2022/05/06 07:03:20;;;;;;;12.18;4.47;;;;;;;16.70;44.65;101455.38;5057441;28;20452;-76
2022/05/06 07:14:07;;;;;;;10.43;3.15;;;;;;;16.47;43.08;101460.84;5065759;28;20074;-77
2022/05/06 07:16:52;;;;;;;9.00;3.90;;;;;;;16.67;43.68;101463.34;5036994;28;20026;-77
2022/05/06 07:19:20;;;;;;;20.75;4.47;;;;;;;16.79;42.12;101465.91;5076772;28;20040;-77
2022/05/06 07:21:53;;;;;;;6.88;4.18;;;;;;;16.98;41.63;101468.41;5070162;28;20042;-77
2022/05/06 07:24:21;;;;;;;14.73;4.55;;;;;;;16.99;43.13;101475.44;5080263;28;20059;-77
2022/05/06 07:26:56;;;;;;;9.13;3.95;;;;;;;17.08;41.53;101476.25;5082840;28;20104;-77
2022/05/06 07:29:24;;;;;;;14.55;5.25;;;;;;;17.06;42.29;101503.66;5077377;28;20548;-78
2022/05/06 07:31:50;;;;;;;13.73;4.38;;;;;;;16.97;41.63;101464.84;5058724;28;20051;-77
2022/05/06 07:34:15;;;;;;;15.35;4.35;;;;;;;17.22;41.30;101461.97;5082440;28;20044;-77
2022/05/06 07:36:43;;;;;;;8.20;3.78;;;;;;;17.42;41.99;101457.31;5068530;28;22076;-76
2022/05/06 07:39:11;;;;;;;10.40;3.63;;;;;;;17.48;41.78;101470.50;5069436;28;20048;-76
2022/05/06 07:41:55;;;;;;;9.32;3.88;;;;;;;17.78;39.49;101502.03;5076931;28;20089;-77
2022/05/06 07:44:21;;;;;;;7.45;4.22;;;;;;;17.63;40.41;101476.53;5086333;28;20040;-78
2022/05/06 07:46:47;;;;;;;40.40;6.05;;;;;;;17.69;40.68;101472.03;5070348;28;20118;-77
2022/05/06 07:49:24;;;;;;;23.33;4.35;;;;;;;17.85;39.64;101490.47;5086691;28;20055;-77
2022/05/06 07:51:51;;;;;;;9.50;4.13;;;;;;;17.64;39.90;101468.56;5063195;28;20047;-77
2022/05/06 07:54:19;;;;;;;6.88;3.65;;;;;;;17.54;38.85;101480.19;5084732;28;20044;-77
2022/05/06 07:56:51;;;;;;;11.90;4.30;;;;;;;17.68;38.25;101458.78;5087741;28;20052;-77
2022/05/06 07:59:25;;;;;;;8.57;3.47;;;;;;;17.80;38.40;101474.56;5078795;28;20040;-77
2022/05/06 08:04:56;;;;;;;6.18;2.53;;;;;;;17.82;37.72;101451.56;5072400;28;20035;-76
2022/05/06 08:07:22;;;;;;;20.15;3.88;;;;;;;18.31;38.60;101504.00;5081655;28;20102;-77
2022/05/06 08:09:52;;;;;;;12.57;3.15;;;;;;;17.68;37.72;101499.47;5090392;28;20498;-77
2022/05/06 08:12:20;;;;;;;8.32;4.30;;;;;;;18.42;37.38;101498.50;5066235;28;20052;-77
2022/05/06 08:14:46;;;;;;;10.20;2.83;;;;;;;18.39;36.46;101511.84;5069298;28;20048;-77
2022/05/06 08:17:20;;;;;;;6.63;3.22;;;;;;;18.46;36.35;101480.75;5081860;28;20099;-78
2022/05/06 08:19:47;;;;;;;11.18;3.80;;;;;;;19.00;35.87;101525.97;5065574;28;20086;-77
2022/05/06 08:22:17;;;;;;;6.38;3.25;;;;;;;18.78;35.41;101477.59;5083977;28;20044;-76
2022/05/06 08:24:44;;;;;;;10.63;4.35;;;;;;;19.11;36.07;101518.69;5069731;28;20040;-77
2022/05/06 08:27:11;;;;;;;9.98;3.03;;;;;;;19.04;35.97;101481.59;5071198;28;20058;-77
2022/05/06 08:29:37;;;;;;;8.88;2.83;;;;;;;19.21;35.48;101484.81;5081283;28;20043;-77
2022/05/06 08:32:03;;;;;;;5.60;2.40;;;;;;;18.49;33.86;101462.94;5061195;28;20017;-77
2022/05/06 08:34:50;;;;;;;7.18;2.88;;;;;;;19.27;32.78;101486.47;5082233;28;20067;-77
2022/05/06 08:37:22;;;;;;;7.30;3.03;;;;;;;19.32;33.18;101496.16;5073922;28;20028;-77
2022/05/06 08:39:49;;;;;;;8.82;3.30;;;;;;;19.85;33.02;101513.78;5080364;28;20175;-77
2022/05/06 08:42:22;;;;;;;3.58;1.90;;;;;;;19.87;32.21;101501.31;5087800;28;20044;-76
2022/05/06 08:51:00;;;;;;;8.90;2.67;;;;;;;19.76;32.66;101470.47;5081846;28;20106;-77
2022/05/06 08:53:32;;;;;;;11.57;3.22;;;;;;;19.54;32.05;101466.44;5084942;28;20525;-77
2022/05/06 08:56:13;;;;;;;7.05;3.08;;;;;;;20.21;32.61;101464.13;5076852;28;20028;-77
2022/05/06 08:58:40;;;;;;;5.68;2.50;;;;;;;21.02;33.22;101459.47;5069131;28;20024;-76
2022/05/06 09:01:16;;;;;;;4.28;2.30;;;;;;;20.40;30.45;101483.25;5083655;28;20036;-77
2022/05/06 09:03:44;;;;;;;7.72;2.20;;;;;;;20.81;34.02;101487.59;5065138;28;20037;-77
2022/05/06 09:06:31;;;;;;;9.27;3.13;;;;;;;21.31;34.14;101456.94;5069095;28;20045;-77
2022/05/06 09:08:59;;;;;;;5.88;4.10;;;;;;;21.80;32.31;101453.75;5078209;28;20057;-77
2022/05/06 09:17:43;;;;;;;4.97;2.13;;;;;;;22.32;31.13;101468.19;5097308;28;20510;-74
2022/05/06 09:23:31;;;;;;;13.05;2.95;;;;;;;21.34;29.52;101441.69;5099674;28;20066;-75
2022/05/06 09:25:58;;;;;;;8.52;2.45;;;;;;;22.66;32.11;101445.69;5097040;28;20410;-75
2022/05/06 09:28:35;;;;;;;7.18;1.83;;;;;;;21.07;30.11;101470.00;5079270;28;20486;-76
2022/05/06 09:34:28;;;;;;;5.57;3.20;;;;;;;22.88;30.55;101432.44;5097315;28;20043;-76
2022/05/06 09:40:27;;;;;;;7.82;3.08;;;;;;;22.11;28.57;101442.13;5099057;28;20039;-76
2022/05/06 09:43:04;;;;;;;11.48;2.75;;;;;;;23.15;29.94;101427.06;5093302;28;20037;-76
2022/05/06 09:45:38;;;;;;;18.63;3.90;;;;;;;23.26;30.25;101419.53;5096862;28;20044;-75
2022/05/06 09:58:10;;;;;;;15.45;3.72;;;;;;;22.49;29.22;101450.72;5099111;28;20092;-76
2022/05/06 10:01:25;;;;;;;4.70;2.67;;;;;;;23.08;31.89;101415.69;5096748;28;20040;-75
2022/05/06 10:07:25;;;;;;;9.32;4.22;;;;;;;21.25;29.80;101423.25;5088701;28;20089;-76
2022/05/06 10:10:02;;;;;;;5.03;2.28;;;;;;;21.88;29.26;101457.06;5071252;28;20040;-76
2022/05/06 10:12:39;;;;;;;4.18;2.45;;;;;;;22.11;29.92;101418.94;5098500;28;20044;-76
2022/05/06 10:15:29;;;;;;;5.35;3.15;;;;;;;22.16;27.43;101450.88;5076696;28;20039;-76
2022/05/06 10:18:30;;;;;;;7.55;3.65;;;;;;;23.25;27.36;101460.63;5050835;28;20125;-76
2022/05/06 10:34:23;;;;;;;12.18;5.20;;;;;;;23.47;28.82;101428.56;5086352;28;20070;-77
2022/05/06 10:37:03;;;;;;;12.70;6.00;;;;;;;22.63;27.10;101375.34;5096358;28;20549;-76
2022/05/06 10:42:53;;;;;;;36.92;8.20;;;;;;;22.96;26.70;101382.19;5104237;28;20108;-77
2022/05/06 10:45:32;;;;;;;11.35;6.40;;;;;;;23.00;27.16;101379.44;5103110;28;20032;-77
2022/05/06 10:48:17;;;;;;;21.23;6.63;;;;;;;23.67;28.42;101381.38;5104990;28;20060;-77
2022/05/06 10:50:43;;;;;;;17.98;6.38;;;;;;;22.24;28.72;101383.78;5086135;28;20093;-76
2022/05/06 10:53:53;;;;;;;18.60;9.02;;;;;;;22.86;28.81;101402.19;5072053;28;20016;-76
2022/05/06 10:56:20;;;;;;;21.33;10.07;;;;;;;22.45;28.10;101363.47;5108451;28;20028;-76
2022/05/06 11:02:11;;;;;;;25.13;8.27;;;;;;;21.95;28.92;101361.53;5106133;28;20047;-77
2022/05/06 11:05:03;;;;;;;14.07;7.72;;;;;;;22.32;27.86;101387.09;5104935;28;20031;-75
2022/05/06 11:07:32;;;;;;;21.60;8.70;;;;;;;21.95;27.66;101363.34;5096339;28;20031;-76
2022/05/06 11:13:25;;;;;;;7.93;4.30;;;;;;;21.11;29.74;101364.94;5036359;28;20072;-76
2022/05/06 11:26:26;;;;;;;10.40;2.92;;;;;;;21.02;30.40;101339.38;5064471;28;20484;-75
2022/05/06 11:32:14;;;;;;;7.25;2.83;;;;;;;20.91;30.59;101338.81;5041862;28;20055;-77
2022/05/06 11:38:02;;;;;;;12.23;5.10;;;;;;;22.21;28.98;101371.41;5041984;28;20068;-80
2022/05/06 11:41:05;;;;;;;14.98;7.50;;;;;;;21.78;29.72;101343.38;5041860;28;20037;-80
2022/05/06 11:43:30;;;;;;;15.65;3.67;;;;;;;21.64;28.78;101354.50;5040618;28;20104;-79
2022/05/06 11:49:29;;;;;;;13.25;6.60;;;;;;;21.18;29.76;101315.78;5042741;28;20111;-80
2022/05/06 11:55:18;;;;;;;21.98;10.77;;;;;;;21.96;29.07;101323.22;5032169;28;20041;-82
2022/05/06 12:01:05;;;;;;;12.55;5.00;;;;;;;21.31;28.67;101323.44;5040849;28;20087;-79
2022/05/06 12:06:55;;;;;;;9.98;3.45;;;;;;;21.44;28.35;101308.81;5039204;28;20044;-80
2022/05/06 12:12:57;;;;;;;4.97;2.30;;;;;;;20.79;28.92;101309.78;5100086;28;20039;-80
2022/05/06 12:18:54;;;;;;;6.53;2.85;;;;;;;20.44;28.98;101327.63;5101559;28;20063;-80
2022/05/06 12:24:45;;;;;;;5.70;2.58;;;;;;;20.31;28.71;101248.88;5102492;28;20039;-79
2022/05/06 12:30:34;;;;;;;3.05;1.88;;;;;;;21.08;28.28;101283.16;5099960;28;20035;-80
2022/05/06 12:36:22;;;;;;;5.82;2.58;;;;;;;22.03;28.68;101315.84;5100235;28;20047;-80
2022/05/06 12:42:21;;;;;;;8.90;2.85;;;;;;;21.41;30.21;101285.75;5100208;28;20047;-79
2022/05/06 12:54:15;;;;;;;8.85;3.45;;;;;;;21.00;32.31;101270.94;5098290;28;20100;-76
2022/05/06 12:56:41;;;;;;;9.57;2.38;;;;;;;21.32;29.00;101283.34;5096759;28;20308;-76
2022/05/06 13:02:28;;;;;;;6.88;3.38;;;;;;;21.25;32.26;101271.97;5090249;28;20072;-77
2022/05/06 13:04:58;;;;;;;5.95;2.80;;;;;;;21.14;32.67;101267.88;5098247;28;20032;-78
2022/05/06 13:07:41;;;;;;;9.80;3.33;;;;;;;20.77;45.04;101258.31;5098651;28;20036;-81
2022/05/06 13:10:56;;;;;;;16.98;2.85;;;;;;;20.84;42.92;101263.41;5089988;28;20510;-78
2022/05/06 13:16:43;;;;;;;13.80;3.28;;;;;;;20.52;43.95;101252.75;5099848;28;20039;-80
2022/05/06 13:19:11;;;;;;;8.52;2.83;;;;;;;20.80;30.39;101280.41;5080205;28;20044;-78
2022/05/06 13:28:08;;;;;;;8.75;2.85;;;;;;;21.44;28.94;101260.75;5103270;28;20078;-77
2022/05/06 13:33:56;;;;;;;20.35;4.53;;;;;;;21.23;29.49;101267.59;5099390;28;20511;-76
2022/05/06 13:39:44;;;;;;;18.30;2.72;;;;;;;20.74;28.71;101231.69;5092921;28;20047;-77
2022/05/06 13:45:34;;;;;;;11.57;4.15;;;;;;;20.89;28.80;101198.38;5061609;28;20054;-76
2022/05/06 13:51:23;;;;;;;9.13;3.60;;;;;;;21.20;29.47;101257.88;5059624;28;20036;-77
2022/05/06 13:53:51;;;;;;;10.93;3.88;;;;;;;21.35;29.41;101237.84;5057572;28;20040;-76
2022/05/06 13:59:38;;;;;;;4.20;1.90;;;;;;;21.16;29.31;101196.63;5058711;28;20036;-78
2022/05/06 14:02:05;;;;;;;7.90;3.50;;;;;;;21.36;32.22;101244.09;5060110;28;20388;-75
2022/05/06 14:04:31;;;;;;;5.30;2.70;;;;;;;21.22;29.64;101208.00;5060134;28;20025;-74
2022/05/06 14:06:58;;;;;;;6.57;3.85;;;;;;;21.22;27.96;101213.34;5057536;28;20044;-76
2022/05/06 14:12:46;;;;;;;7.85;2.80;;;;;;;20.57;28.92;101203.72;5078224;28;20525;-76
2022/05/06 14:18:35;;;;;;;9.07;2.90;;;;;;;20.67;28.44;101217.66;5086218;28;20051;-76
2022/05/06 14:24:22;;;;;;;14.95;3.53;;;;;;;20.86;28.26;101207.31;5082229;28;20375;-75
2022/05/06 14:26:52;;;;;;;7.93;3.55;;;;;;;21.33;27.30;101234.38;5073803;28;20044;-75
2022/05/06 14:32:39;;;;;;;5.97;3.03;;;;;;;20.63;27.36;101208.03;5073763;28;20047;-75
2022/05/06 14:38:30;;;;;;;5.60;2.58;;;;;;;21.12;26.19;101203.88;5084364;28;20152;-75
2022/05/06 14:44:18;;;;;;;10.02;3.58;;;;;;;21.02;28.58;101184.59;5083961;28;20047;-76
2022/05/06 14:47:05;;;;;;;5.68;2.45;;;;;;;21.33;27.53;101222.78;5084473;28;20056;-75
2022/05/06 14:49:31;;;;;;;6.88;3.78;;;;;;;21.27;27.76;101200.72;5058866;28;20033;-75
2022/05/06 14:52:04;;;;;;;7.13;2.42;;;;;;;20.85;26.59;101181.59;5064639;28;20043;-76
2022/05/06 14:57:54;;;;;;;10.65;2.55;;;;;;;20.56;27.79;101209.13;5083992;28;20061;-76
2022/05/06 15:03:45;;;;;;;6.28;3.10;;;;;;;20.36;27.53;101180.31;5084466;28;20035;-75
2022/05/06 15:13:28;;;;;;;7.35;3.17;;;;;;;20.80;26.01;101159.50;5084531;28;20059;-75
2022/05/06 15:19:27;;;;;;;7.55;3.05;;;;;;;20.74;26.94;101173.88;5103826;28;20039;-75
2022/05/06 15:25:19;;;;;;;5.07;2.72;;;;;;;20.41;26.09;101173.06;5092704;28;20430;-75
2022/05/06 15:27:45;;;;;;;6.15;3.17;;;;;;;20.60;26.52;101161.00;5103249;28;20048;-75
2022/05/06 15:33:34;;;;;;;9.27;3.90;;;;;;;20.81;26.98;101164.81;5101821;28;20039;-77
2022/05/06 15:43:20;;;;;;;16.85;4.75;;;;;;;20.54;26.31;101160.25;5091322;28;20051;-77
2022/05/06 15:45:48;;;;;;;13.90;5.68;;;;;;;20.35;26.81;101154.59;5101044;28;20119;-78
2022/05/06 15:51:37;;;;;;;10.93;4.53;;;;;;;20.43;26.25;101161.44;5102949;28;20054;-77
2022/05/06 15:54:03;;;;;;;13.35;5.43;;;;;;;20.26;28.00;101144.19;5092177;28;20153;-77
2022/05/06 15:56:41;;;;;;;13.05;5.93;;;;;;;20.57;27.74;101190.41;5099992;28;20443;-76
2022/05/06 16:02:59;;;;;;;16.42;5.97;;;;;;;20.27;27.91;101153.91;5084685;28;20532;-78
2022/05/06 16:09:04;;;;;;;11.38;5.25;;;;;;;20.07;28.69;101143.84;5095073;28;20055;-77
2022/05/06 16:15:26;;;;;;;230.73;26.75;;;;;;;19.92;28.70;101150.44;5093471;28;20059;-77
2022/05/06 16:18:22;;;;;;;102.72;13.05;;;;;;;20.10;28.90;101194.38;5084452;28;20047;-76
2022/05/06 16:25:05;;;;;;;26.58;6.55;;;;;;;20.01;28.25;101188.34;5103670;28;20047;-76
2022/05/06 16:30:52;;;;;;;22.30;6.10;;;;;;;19.85;28.35;101165.69;5103652;28;20043;-76
2022/05/06 16:42:47;;;;;;;20.38;7.97;;;;;;;19.71;29.25;101182.03;5090607;28;20055;-77
2022/05/06 16:48:42;;;;;;;12.43;4.15;;;;;;;19.29;29.26;101141.38;5080217;28;20047;-77
2022/05/06 16:51:55;;;;;;;12.25;4.78;;;;;;;19.24;29.74;101145.94;5086931;28;20044;-76
2022/05/06 16:54:24;;;;;;;10.75;4.32;;;;;;;19.47;30.07;101196.81;5090907;28;20032;-76
2022/05/06 17:00:19;;;;;;;11.13;4.50;;;;;;;19.32;30.86;101208.72;5101815;28;20046;-76
2022/05/06 17:02:45;;;;;;;10.80;4.40;;;;;;;19.32;30.90;101198.06;5088312;28;20110;-76
2022/05/06 17:05:11;;;;;;;17.48;4.75;;;;;;;19.03;30.84;101171.25;5085714;28;20107;-76
2022/05/06 17:11:09;;;;;;;10.48;4.07;;;;;;;19.10;30.46;101192.34;5066389;28;20518;-78
2022/05/06 17:13:57;;;;;;;9.00;4.93;;;;;;;19.01;30.99;101191.69;5081188;28;20024;-76
2022/05/06 17:19:46;;;;;;;11.35;5.35;;;;;;;18.98;31.56;101212.13;5055958;28;20063;-78